Time;durP1;ratioP1;P1;durP2;ratioP2;P2;SDS_P1;SDS_P2;PMS_P1;PMS_P2;Temp;Humidity;BMP_temperature;BMP_pressure;BME280_temperature;BME280_humidity;BME280_pressure;Samples;Min_cycle;Max_cycle;Signal;HPM_P1;HPM_P2
2023/05/28 00:00:45;;;;;;;14.77;10.48;;;;;;;;;;4981871;28;20046;-53
2023/05/28 00:03:12;;;;;;;16.10;10.73;;;;;;;;;;4981014;28;20026;-49
2023/05/28 00:05:37;;;;;;;13.20;10.32;;;;;;;;;;4976912;28;20030;-47
2023/05/28 00:08:03;;;;;;;17.52;10.80;;;;;;;;;;4984788;28;20026;-47
2023/05/28 00:10:28;;;;;;;16.75;10.88;;;;;;;;;;4983658;28;20042;-49
2023/05/28 00:12:54;;;;;;;20.65;11.93;;;;;;;;;;4984514;28;20067;-46
2023/05/28 00:15:19;;;;;;;13.98;10.88;;;;;;;;;;4979707;28;20534;-52
2023/05/28 00:17:45;;;;;;;15.50;10.98;;;;;;;;;;4984736;28;20125;-50
2023/05/28 00:20:10;;;;;;;16.05;11.32;;;;;;;;;;4983901;28;20039;-47
2023/05/28 00:22:36;;;;;;;17.33;10.55;;;;;;;;;;4986211;28;20580;-44
2023/05/28 00:25:01;;;;;;;16.15;10.77;;;;;;;;;;4980228;28;20074;-44
2023/05/28 00:27:27;;;;;;;17.77;10.43;;;;;;;;;;4983671;28;20038;-46
2023/05/28 00:29:52;;;;;;;11.90;10.50;;;;;;;;;;4982781;28;20030;-49
2023/05/28 00:32:18;;;;;;;18.52;10.38;;;;;;;;;;4981743;28;20042;-50
2023/05/28 00:34:43;;;;;;;11.82;10.20;;;;;;;;;;4985491;28;20030;-50
2023/05/28 00:37:08;;;;;;;12.95;10.75;;;;;;;;;;4982605;28;20496;-47
2023/05/28 00:39:34;;;;;;;17.50;10.18;;;;;;;;;;4985150;28;20059;-51
2023/05/28 00:42:01;;;;;;;18.67;11.00;;;;;;;;;;4981449;28;20495;-46
2023/05/28 00:44:27;;;;;;;15.00;10.65;;;;;;;;;;4979301;28;20031;-52
2023/05/28 00:46:53;;;;;;;13.07;11.20;;;;;;;;;;4982922;28;20057;-52
2023/05/28 00:49:18;;;;;;;18.30;11.38;;;;;;;;;;4980970;28;20443;-52
2023/05/28 00:51:44;;;;;;;16.23;10.77;;;;;;;;;;4983816;28;20109;-50
2023/05/28 00:54:11;;;;;;;18.65;11.82;;;;;;;;;;4983466;28;20077;-50
2023/05/28 00:56:36;;;;;;;18.45;11.57;;;;;;;;;;4983367;28;20047;-52
2023/05/28 00:59:04;;;;;;;15.70;11.45;;;;;;;;;;4980747;28;20546;-47
2023/05/28 01:01:29;;;;;;;14.52;10.55;;;;;;;;;;4984172;28;20518;-49
2023/05/28 01:03:55;;;;;;;22.80;11.63;;;;;;;;;;4983870;28;20054;-52
2023/05/28 01:06:21;;;;;;;19.58;12.45;;;;;;;;;;4980239;28;20042;-48
2023/05/28 01:08:48;;;;;;;14.65;11.25;;;;;;;;;;4982742;28;20110;-51
2023/05/28 01:11:21;;;;;;;15.48;10.90;;;;;;;;;;4980141;28;20062;-51
2023/05/28 01:13:47;;;;;;;21.05;11.70;;;;;;;;;;4983229;28;20105;-51
2023/05/28 01:16:13;;;;;;;17.55;11.70;;;;;;;;;;4980483;28;20062;-50
2023/05/28 01:18:40;;;;;;;16.58;11.55;;;;;;;;;;4982806;28;20117;-46
2023/05/28 01:21:07;;;;;;;17.92;12.10;;;;;;;;;;4980422;28;20085;-43
2023/05/28 01:23:43;;;;;;;18.75;11.77;;;;;;;;;;4983220;28;20030;-46
2023/05/28 01:26:12;;;;;;;15.32;10.93;;;;;;;;;;4979823;28;20057;-45
2023/05/28 01:28:43;;;;;;;20.90;11.70;;;;;;;;;;4985212;28;20034;-46
2023/05/28 01:31:09;;;;;;;18.80;12.65;;;;;;;;;;4981217;28;20030;-44
2023/05/28 01:33:35;;;;;;;19.42;11.70;;;;;;;;;;4985174;28;20032;-49
2023/05/28 01:36:02;;;;;;;19.73;12.00;;;;;;;;;;4982245;28;20035;-46
2023/05/28 01:38:28;;;;;;;17.02;11.68;;;;;;;;;;4983672;28;20027;-44
2023/05/28 01:40:54;;;;;;;17.45;11.82;;;;;;;;;;4981227;28;20514;-50
2023/05/28 01:43:20;;;;;;;20.35;10.38;;;;;;;;;;4982264;28;20027;-44
2023/05/28 01:45:46;;;;;;;13.00;11.60;;;;;;;;;;4978350;28;20061;-45
2023/05/28 01:48:12;;;;;;;17.83;12.02;;;;;;;;;;4980549;28;20030;-48
2023/05/28 01:50:38;;;;;;;17.20;12.15;;;;;;;;;;4982016;28;20442;-47
2023/05/28 01:53:03;;;;;;;17.33;12.07;;;;;;;;;;4983034;28;20035;-46
2023/05/28 01:55:29;;;;;;;17.90;12.27;;;;;;;;;;4981250;28;20374;-44
2023/05/28 01:57:55;;;;;;;19.90;12.07;;;;;;;;;;4985342;28;20679;-44
2023/05/28 02:00:22;;;;;;;14.77;12.48;;;;;;;;;;4982696;28;20134;-45
2023/05/28 02:02:47;;;;;;;17.95;11.77;;;;;;;;;;4984089;28;20423;-46
2023/05/28 02:05:13;;;;;;;17.80;12.57;;;;;;;;;;4985183;28;20042;-44
2023/05/28 02:07:38;;;;;;;18.02;12.15;;;;;;;;;;4988930;28;20145;-43
2023/05/28 02:10:05;;;;;;;18.17;11.90;;;;;;;;;;4989040;28;20045;-47
2023/05/28 02:12:30;;;;;;;18.02;12.10;;;;;;;;;;4983571;28;20092;-46
2023/05/28 02:14:56;;;;;;;28.02;12.23;;;;;;;;;;4984313;28;20498;-45
2023/05/28 02:17:21;;;;;;;14.20;11.52;;;;;;;;;;4983749;28;20130;-44
2023/05/28 02:19:46;;;;;;;16.15;12.77;;;;;;;;;;4982802;28;20030;-47
2023/05/28 02:22:12;;;;;;;19.80;11.45;;;;;;;;;;4985902;28;20038;-50
2023/05/28 02:24:41;;;;;;;22.35;11.77;;;;;;;;;;4986697;28;20391;-46
2023/05/28 02:27:07;;;;;;;18.02;11.00;;;;;;;;;;4983346;28;20050;-49
2023/05/28 02:29:33;;;;;;;17.58;10.30;;;;;;;;;;4986476;28;20030;-46
2023/05/28 02:32:00;;;;;;;16.70;11.82;;;;;;;;;;4985292;28;20377;-49
2023/05/28 02:34:25;;;;;;;18.85;11.02;;;;;;;;;;4986294;28;20022;-46
2023/05/28 02:36:52;;;;;;;17.65;11.38;;;;;;;;;;4983340;28;20047;-49
2023/05/28 02:39:18;;;;;;;16.63;11.18;;;;;;;;;;4985229;28;20022;-50
2023/05/28 02:41:43;;;;;;;17.25;11.15;;;;;;;;;;4982511;28;20046;-44
2023/05/28 02:44:09;;;;;;;15.40;10.90;;;;;;;;;;4985151;28;20030;-47
2023/05/28 02:46:34;;;;;;;16.50;11.27;;;;;;;;;;4980147;28;20050;-47
2023/05/28 02:48:59;;;;;;;16.30;11.35;;;;;;;;;;4983286;28;20541;-51
2023/05/28 02:51:25;;;;;;;17.80;11.75;;;;;;;;;;4985603;28;20034;-48
2023/05/28 02:53:50;;;;;;;15.90;11.63;;;;;;;;;;4986951;28;20034;-46
2023/05/28 02:56:16;;;;;;;16.83;12.40;;;;;;;;;;4981821;28;20136;-50
2023/05/28 02:58:41;;;;;;;15.85;12.35;;;;;;;;;;4984180;28;20078;-49
2023/05/28 03:01:06;;;;;;;17.55;11.90;;;;;;;;;;4982610;28;20129;-50
2023/05/28 03:03:32;;;;;;;18.13;12.07;;;;;;;;;;4984450;28;20391;-47
2023/05/28 03:05:57;;;;;;;16.20;12.23;;;;;;;;;;4982219;28;20133;-50
2023/05/28 03:08:23;;;;;;;17.00;11.40;;;;;;;;;;4985822;28;20034;-49
2023/05/28 03:10:48;;;;;;;14.90;11.75;;;;;;;;;;4983710;28;20053;-43
2023/05/28 03:13:13;;;;;;;14.48;11.15;;;;;;;;;;4984318;28;20462;-44
2023/05/28 03:15:39;;;;;;;14.70;11.18;;;;;;;;;;4984220;28;20022;-51
2023/05/28 03:18:04;;;;;;;16.50;11.00;;;;;;;;;;4983791;28;20129;-46
2023/05/28 03:20:30;;;;;;;18.45;11.30;;;;;;;;;;4982515;28;20026;-45
2023/05/28 03:22:58;;;;;;;18.88;10.95;;;;;;;;;;4984906;28;20399;-44
2023/05/28 03:25:25;;;;;;;21.30;11.38;;;;;;;;;;4986137;28;20045;-48
2023/05/28 03:27:51;;;;;;;13.98;10.73;;;;;;;;;;4984740;28;20031;-49
2023/05/28 03:30:16;;;;;;;16.13;10.30;;;;;;;;;;4984816;28;20510;-46
2023/05/28 03:32:42;;;;;;;17.73;11.05;;;;;;;;;;4982949;28;20038;-47
2023/05/28 03:35:08;;;;;;;15.48;9.65;;;;;;;;;;4985941;28;20030;-46
2023/05/28 03:37:33;;;;;;;13.15;10.10;;;;;;;;;;4985988;28;20031;-49
2023/05/28 03:39:59;;;;;;;12.38;10.20;;;;;;;;;;4984066;28;20033;-49
2023/05/28 03:42:24;;;;;;;16.63;10.70;;;;;;;;;;4984451;28;20049;-52
2023/05/28 03:44:50;;;;;;;18.73;10.48;;;;;;;;;;4985821;28;20081;-47
2023/05/28 03:47:15;;;;;;;12.45;10.32;;;;;;;;;;4978231;28;20049;-43
2023/05/28 03:49:41;;;;;;;16.33;9.77;;;;;;;;;;4982420;28;20037;-43
2023/05/28 03:52:07;;;;;;;14.95;9.30;;;;;;;;;;4985298;28;20043;-51
2023/05/28 03:54:32;;;;;;;13.65;8.98;;;;;;;;;;4985671;28;20423;-49
2023/05/28 03:56:58;;;;;;;11.68;9.40;;;;;;;;;;4982599;28;20039;-52
2023/05/28 03:59:23;;;;;;;16.55;9.27;;;;;;;;;;4984253;28;20022;-47
2023/05/28 04:01:49;;;;;;;12.95;9.25;;;;;;;;;;4980380;28;21266;-44
2023/05/28 04:04:15;;;;;;;15.80;9.15;;;;;;;;;;4986713;28;20038;-44
2023/05/28 04:06:41;;;;;;;11.18;9.13;;;;;;;;;;4982195;28;20046;-46
2023/05/28 04:09:07;;;;;;;14.75;9.23;;;;;;;;;;4986601;28;20034;-44
2023/05/28 04:11:34;;;;;;;11.95;9.27;;;;;;;;;;4982849;28;20333;-49
2023/05/28 04:14:00;;;;;;;12.45;9.10;;;;;;;;;;4983897;28;20037;-46
2023/05/28 04:16:25;;;;;;;13.85;9.65;;;;;;;;;;4980784;28;20050;-49
2023/05/28 04:18:51;;;;;;;14.63;9.70;;;;;;;;;;4984091;28;20029;-44
2023/05/28 04:21:17;;;;;;;13.80;9.65;;;;;;;;;;4983391;28;20050;-45
2023/05/28 04:23:42;;;;;;;14.57;10.05;;;;;;;;;;4979711;28;20081;-50
2023/05/28 04:26:07;;;;;;;11.57;9.95;;;;;;;;;;4980314;28;20108;-48
2023/05/28 04:28:33;;;;;;;14.02;9.52;;;;;;;;;;4983711;28;20463;-47
2023/05/28 04:31:01;;;;;;;13.82;9.65;;;;;;;;;;4983490;28;20570;-44
2023/05/28 04:33:28;;;;;;;14.82;9.52;;;;;;;;;;4984120;28;20209;-48
2023/05/28 04:35:55;;;;;;;15.45;9.68;;;;;;;;;;4984117;28;20038;-51
2023/05/28 04:38:20;;;;;;;18.45;9.80;;;;;;;;;;4983286;28;20109;-47
2023/05/28 04:40:45;;;;;;;13.70;9.32;;;;;;;;;;4979497;28;20125;-50
2023/05/28 04:43:11;;;;;;;10.32;9.32;;;;;;;;;;4985963;28;20030;-49
2023/05/28 04:45:37;;;;;;;11.60;9.10;;;;;;;;;;4982346;28;20398;-49
2023/05/28 04:48:04;;;;;;;13.20;9.15;;;;;;;;;;4984859;28;20030;-49
2023/05/28 04:50:29;;;;;;;11.05;8.88;;;;;;;;;;4982298;28;20030;-46
2023/05/28 04:52:54;;;;;;;10.73;8.32;;;;;;;;;;4982418;28;20475;-49
2023/05/28 04:55:20;;;;;;;11.45;8.65;;;;;;;;;;4983927;28;20037;-47
2023/05/28 04:57:46;;;;;;;12.35;8.75;;;;;;;;;;4980054;28;20062;-49
2023/05/28 05:00:14;;;;;;;13.23;8.38;;;;;;;;;;4984586;28;20343;-49
2023/05/28 05:02:43;;;;;;;12.40;9.32;;;;;;;;;;4984104;28;20051;-48
2023/05/28 05:05:09;;;;;;;12.63;8.13;;;;;;;;;;4984254;28;20030;-53
2023/05/28 05:07:36;;;;;;;11.88;8.00;;;;;;;;;;4985747;28;20043;-48
2023/05/28 05:10:02;;;;;;;12.43;8.20;;;;;;;;;;4980316;28;20834;-51
2023/05/28 05:12:28;;;;;;;12.23;8.82;;;;;;;;;;4982433;28;20543;-45
2023/05/28 05:14:53;;;;;;;14.18;8.27;;;;;;;;;;4979214;28;20034;-51
2023/05/28 05:17:18;;;;;;;12.32;7.90;;;;;;;;;;4982125;28;20102;-51
2023/05/28 05:19:44;;;;;;;14.27;9.55;;;;;;;;;;4979145;28;20038;-48
2023/05/28 05:22:09;;;;;;;16.13;9.50;;;;;;;;;;4985592;28;20116;-44
2023/05/28 05:24:35;;;;;;;12.13;7.90;;;;;;;;;;4981907;28;20034;-46
2023/05/28 05:27:01;;;;;;;13.48;8.25;;;;;;;;;;4982378;28;20506;-43
2023/05/28 05:29:26;;;;;;;8.75;7.75;;;;;;;;;;4981226;28;20030;-45
2023/05/28 05:31:52;;;;;;;10.02;7.53;;;;;;;;;;4985842;28;20089;-48
2023/05/28 05:34:17;;;;;;;10.52;6.95;;;;;;;;;;4985948;28;20081;-45
2023/05/28 05:36:43;;;;;;;13.57;7.90;;;;;;;;;;4983432;28;20126;-46
2023/05/28 05:39:08;;;;;;;12.57;7.72;;;;;;;;;;4986011;28;20097;-43
2023/05/28 05:41:34;;;;;;;12.02;7.53;;;;;;;;;;4984353;28;20069;-43
2023/05/28 05:43:59;;;;;;;11.18;8.13;;;;;;;;;;4984460;28;20122;-43
2023/05/28 05:46:24;;;;;;;10.13;7.15;;;;;;;;;;4988039;28;20467;-44
2023/05/28 05:48:50;;;;;;;12.13;8.18;;;;;;;;;;4985668;28;20026;-43
2023/05/28 05:51:18;;;;;;;10.27;7.05;;;;;;;;;;5016990;28;20043;-45
2023/05/28 05:53:44;;;;;;;11.98;7.97;;;;;;;;;;4986340;28;20033;-44
2023/05/28 05:56:10;;;;;;;16.63;7.45;;;;;;;;;;4983365;28;20423;-48
2023/05/28 05:58:35;;;;;;;10.45;7.20;;;;;;;;;;4982049;28;20093;-49
2023/05/28 06:01:01;;;;;;;15.00;7.10;;;;;;;;;;4987336;28;20406;-47
2023/05/28 06:03:27;;;;;;;7.68;6.90;;;;;;;;;;4989337;28;20057;-44
2023/05/28 06:05:53;;;;;;;11.32;7.47;;;;;;;;;;4985676;28;20030;-47
2023/05/28 06:08:18;;;;;;;12.32;7.05;;;;;;;;;;4984396;28;20089;-49
2023/05/28 06:10:43;;;;;;;9.32;7.28;;;;;;;;;;4984859;28;20042;-49
2023/05/28 06:13:09;;;;;;;12.90;7.80;;;;;;;;;;4984820;28;20038;-47
2023/05/28 06:15:34;;;;;;;8.82;7.00;;;;;;;;;;4983545;28;20034;-48
2023/05/28 06:18:00;;;;;;;15.27;6.30;;;;;;;;;;4986925;28;20080;-44
2023/05/28 06:20:27;;;;;;;11.40;6.85;;;;;;;;;;4982446;28;20030;-47
2023/05/28 06:22:52;;;;;;;10.95;6.63;;;;;;;;;;4987444;28;20551;-44
2023/05/28 06:25:18;;;;;;;9.98;6.28;;;;;;;;;;4985123;28;20035;-44
2023/05/28 06:27:43;;;;;;;9.00;6.55;;;;;;;;;;4984829;28;20123;-48
2023/05/28 06:30:10;;;;;;;6.82;6.13;;;;;;;;;;4987778;28;20105;-47
2023/05/28 06:32:35;;;;;;;14.80;7.07;;;;;;;;;;4982980;28;20034;-49
2023/05/28 06:35:01;;;;;;;12.25;6.95;;;;;;;;;;4986881;28;20057;-45
2023/05/28 06:37:26;;;;;;;12.27;6.13;;;;;;;;;;4983736;28;20192;-44
2023/05/28 06:39:52;;;;;;;12.98;6.03;;;;;;;;;;4986267;28;20038;-45
2023/05/28 06:42:17;;;;;;;9.02;6.10;;;;;;;;;;4986865;28;20050;-47
2023/05/28 06:44:43;;;;;;;9.63;5.78;;;;;;;;;;4986240;28;20038;-43
2023/05/28 06:47:08;;;;;;;7.85;5.90;;;;;;;;;;4987789;28;20046;-45
2023/05/28 06:49:34;;;;;;;10.48;6.20;;;;;;;;;;4979923;28;20023;-45
2023/05/28 06:51:59;;;;;;;10.65;5.68;;;;;;;;;;4984529;28;20077;-46
2023/05/28 06:54:25;;;;;;;14.52;6.28;;;;;;;;;;4988464;28;20026;-50
2023/05/28 06:56:50;;;;;;;8.80;5.90;;;;;;;;;;4981531;28;20500;-52
2023/05/28 06:59:15;;;;;;;9.18;6.05;;;;;;;;;;4982897;28;20062;-49
2023/05/28 07:01:41;;;;;;;9.52;5.57;;;;;;;;;;4981642;28;20050;-45
2023/05/28 07:04:06;;;;;;;9.23;5.65;;;;;;;;;;4988065;28;20544;-46
2023/05/28 07:06:32;;;;;;;11.55;5.57;;;;;;;;;;4983520;28;20039;-47
2023/05/28 07:08:57;;;;;;;9.30;5.15;;;;;;;;;;4989126;28;20034;-45
2023/05/28 07:11:23;;;;;;;8.32;5.63;;;;;;;;;;4983826;28;20096;-47
2023/05/28 07:13:48;;;;;;;13.93;5.47;;;;;;;;;;4972733;28;20515;-51
2023/05/28 07:16:13;;;;;;;15.30;5.35;;;;;;;;;;4982914;28;20061;-47
2023/05/28 07:18:40;;;;;;;7.38;5.07;;;;;;;;;;4979861;28;20050;-47
2023/05/28 07:21:05;;;;;;;20.58;6.82;;;;;;;;;;4980274;28;20404;-50
2023/05/28 07:23:31;;;;;;;11.27;5.10;;;;;;;;;;4979929;28;20044;-53
2023/05/28 07:25:56;;;;;;;8.93;5.22;;;;;;;;;;5016847;28;20515;-49
2023/05/28 07:28:21;;;;;;;13.70;5.28;;;;;;;;;;4986460;28;20041;-47
2023/05/28 07:30:47;;;;;;;10.38;4.90;;;;;;;;;;4979108;28;20654;-51
2023/05/28 07:33:12;;;;;;;8.75;4.82;;;;;;;;;;4981870;28;20023;-50
2023/05/28 07:35:38;;;;;;;9.82;5.13;;;;;;;;;;4982583;28;20050;-53
2023/05/28 07:38:03;;;;;;;11.32;4.35;;;;;;;;;;4985488;28;20097;-51
2023/05/28 07:40:29;;;;;;;8.80;4.25;;;;;;;;;;4986409;28;20040;-49
2023/05/28 07:42:54;;;;;;;9.88;4.13;;;;;;;;;;4984790;28;20089;-51
2023/05/28 07:45:20;;;;;;;11.02;4.20;;;;;;;;;;4986828;28;20101;-49
2023/05/28 07:47:45;;;;;;;8.75;4.13;;;;;;;;;;4985052;28;20583;-49
2023/05/28 07:50:11;;;;;;;10.77;3.78;;;;;;;;;;4983401;28;20041;-48
2023/05/28 07:52:37;;;;;;;10.35;4.45;;;;;;;;;;4982520;28;20046;-50
2023/05/28 07:55:03;;;;;;;7.82;4.30;;;;;;;;;;4982632;28;20150;-53
2023/05/28 07:57:29;;;;;;;6.57;3.58;;;;;;;;;;4984665;28;20145;-52
2023/05/28 07:59:55;;;;;;;7.32;4.40;;;;;;;;;;4983165;28;20033;-49
2023/05/28 08:02:21;;;;;;;15.85;4.90;;;;;;;;;;4983455;28;20488;-53
2023/05/28 08:04:48;;;;;;;6.80;4.40;;;;;;;;;;4985472;28;20046;-49
2023/05/28 08:07:14;;;;;;;10.10;4.32;;;;;;;;;;4984391;28;20070;-51
2023/05/28 08:09:41;;;;;;;7.22;3.88;;;;;;;;;;4982966;28;20102;-49
2023/05/28 08:12:07;;;;;;;6.95;3.50;;;;;;;;;;4981305;28;20034;-47
2023/05/28 08:14:32;;;;;;;10.60;4.30;;;;;;;;;;4979929;28;20487;-45
2023/05/28 08:16:57;;;;;;;8.15;4.25;;;;;;;;;;4981364;28;20042;-47
2023/05/28 08:19:23;;;;;;;13.02;4.43;;;;;;;;;;4979826;28;20049;-48
2023/05/28 08:21:48;;;;;;;11.88;4.05;;;;;;;;;;4983625;28;20048;-52
2023/05/28 08:24:14;;;;;;;7.97;4.07;;;;;;;;;;4983447;28;20022;-50
2023/05/28 08:26:39;;;;;;;9.00;4.40;;;;;;;;;;4983656;28;20495;-49
2023/05/28 08:29:04;;;;;;;9.18;4.63;;;;;;;;;;4981465;28;20430;-50
2023/05/28 08:31:33;;;;;;;7.97;4.13;;;;;;;;;;4985125;28;20070;-50
2023/05/28 08:33:58;;;;;;;7.82;4.07;;;;;;;;;;4984709;28;20037;-52
2023/05/28 08:36:24;;;;;;;7.03;3.80;;;;;;;;;;4982649;28;20411;-50
2023/05/28 08:38:50;;;;;;;13.48;5.13;;;;;;;;;;4982785;28;20049;-50
2023/05/28 08:41:15;;;;;;;8.25;5.22;;;;;;;;;;4982534;28;20058;-50
2023/05/28 08:43:42;;;;;;;7.22;5.32;;;;;;;;;;4981376;28;20386;-47
2023/05/28 08:46:07;;;;;;;10.98;4.28;;;;;;;;;;4985283;28;20054;-49
2023/05/28 08:48:34;;;;;;;10.77;4.70;;;;;;;;;;4979534;28;20387;-52
2023/05/28 08:51:00;;;;;;;12.63;5.00;;;;;;;;;;4980418;28;20116;-47
2023/05/28 08:53:30;;;;;;;9.32;5.60;;;;;;;;;;4980108;28;20061;-48
2023/05/28 08:55:56;;;;;;;10.32;6.07;;;;;;;;;;4980315;28;20065;-52
2023/05/28 08:58:21;;;;;;;9.48;5.80;;;;;;;;;;4977355;28;20038;-50
2023/05/28 09:00:47;;;;;;;11.65;5.35;;;;;;;;;;4980816;28;20047;-49
2023/05/28 09:03:13;;;;;;;8.23;4.00;;;;;;;;;;4983391;28;20507;-52
2023/05/28 09:05:38;;;;;;;9.65;4.65;;;;;;;;;;4983346;28;20041;-52
2023/05/28 09:08:09;;;;;;;8.02;4.13;;;;;;;;;;4983799;28;20088;-49
2023/05/28 09:10:36;;;;;;;11.17;4.73;;;;;;;;;;4984526;28;20026;-47
2023/05/28 09:13:02;;;;;;;8.43;4.85;;;;;;;;;;4985761;28;20448;-47
2023/05/28 09:15:29;;;;;;;8.60;5.13;;;;;;;;;;4985508;28;20089;-44
2023/05/28 09:17:55;;;;;;;14.85;5.40;;;;;;;;;;4987035;28;20058;-49
2023/05/28 09:20:21;;;;;;;7.97;4.85;;;;;;;;;;4985590;28;20034;-42
2023/05/28 09:22:58;;;;;;;6.45;4.82;;;;;;;;;;4983306;28;20030;-47
2023/05/28 09:25:24;;;;;;;13.32;5.15;;;;;;;;;;4982388;28;20045;-44
2023/05/28 09:27:50;;;;;;;8.52;4.72;;;;;;;;;;4986422;28;20034;-47
2023/05/28 09:30:15;;;;;;;6.20;4.25;;;;;;;;;;4989118;28;20030;-49
2023/05/28 09:32:41;;;;;;;7.55;4.93;;;;;;;;;;4987273;28;20373;-46
2023/05/28 09:35:07;;;;;;;18.35;5.15;;;;;;;;;;4987967;28;20472;-47
2023/05/28 09:37:35;;;;;;;10.18;4.68;;;;;;;;;;4985670;28;20034;-44
2023/05/28 09:40:07;;;;;;;7.97;4.88;;;;;;;;;;4986137;28;20030;-50
2023/05/28 09:42:41;;;;;;;9.55;4.55;;;;;;;;;;4984373;28;20065;-45
2023/05/28 09:45:08;;;;;;;13.32;4.72;;;;;;;;;;4987489;28;20361;-46
2023/05/28 09:47:44;;;;;;;9.18;4.15;;;;;;;;;;4984641;28;20130;-44
2023/05/28 09:50:10;;;;;;;8.25;4.45;;;;;;;;;;4982399;28;20046;-49
2023/05/28 09:52:37;;;;;;;8.23;3.95;;;;;;;;;;4983455;28;20134;-51
2023/05/28 09:55:06;;;;;;;9.55;4.30;;;;;;;;;;4983580;28;20026;-53
2023/05/28 09:57:33;;;;;;;14.05;4.10;;;;;;;;;;4980361;28;20038;-47
2023/05/28 10:00:14;;;;;;;12.88;4.38;;;;;;;;;;4987760;28;20109;-49
2023/05/28 10:03:05;;;;;;;8.90;3.92;;;;;;;;;;4990059;28;20056;-45
2023/05/28 10:05:33;;;;;;;8.77;3.90;;;;;;;;;;4985366;28;20440;-50
2023/05/28 10:08:00;;;;;;;14.80;3.97;;;;;;;;;;4986789;28;20081;-48
2023/05/28 10:10:28;;;;;;;13.80;4.60;;;;;;;;;;4984784;28;20519;-45
2023/05/28 10:12:55;;;;;;;5.78;4.13;;;;;;;;;;4983719;28;20037;-44
2023/05/28 10:15:21;;;;;;;17.88;4.97;;;;;;;;;;4983717;28;20034;-42
2023/05/28 10:17:47;;;;;;;8.63;4.60;;;;;;;;;;4983914;28;20042;-50
2023/05/28 10:20:14;;;;;;;6.93;5.03;;;;;;;;;;4981408;28;20030;-47
2023/05/28 10:22:40;;;;;;;11.70;4.47;;;;;;;;;;4984516;28;20562;-46
2023/05/28 10:25:07;;;;;;;7.82;5.05;;;;;;;;;;4985498;28;20027;-47
2023/05/28 10:27:35;;;;;;;11.77;4.65;;;;;;;;;;4986936;28;20034;-47
2023/05/28 10:30:05;;;;;;;9.48;4.80;;;;;;;;;;4982273;28;21394;-44
2023/05/28 10:32:41;;;;;;;10.00;5.50;;;;;;;;;;4986626;28;20042;-43
2023/05/28 10:35:09;;;;;;;8.27;5.05;;;;;;;;;;4984722;28;20448;-47
2023/05/28 10:37:35;;;;;;;7.28;5.10;;;;;;;;;;4983446;28;20101;-45
2023/05/28 10:40:01;;;;;;;6.65;4.97;;;;;;;;;;4986276;28;20050;-48
2023/05/28 10:42:26;;;;;;;9.38;4.93;;;;;;;;;;4985956;28;20109;-50
2023/05/28 10:45:10;;;;;;;8.10;4.43;;;;;;;;;;4985168;28;20116;-50
2023/05/28 10:47:37;;;;;;;9.93;4.47;;;;;;;;;;4984103;28;20046;-46
2023/05/28 10:50:09;;;;;;;10.88;4.50;;;;;;;;;;4986147;28;20138;-49
2023/05/28 10:52:36;;;;;;;7.53;4.30;;;;;;;;;;5015620;28;20078;-44
2023/05/28 10:55:04;;;;;;;5.43;4.05;;;;;;;;;;4985285;28;20081;-47
2023/05/28 10:57:44;;;;;;;5.63;3.85;;;;;;;;;;4982589;28;20050;-49
2023/05/28 11:00:13;;;;;;;8.57;4.22;;;;;;;;;;4986203;28;20030;-47
2023/05/28 11:02:42;;;;;;;7.32;4.30;;;;;;;;;;4983389;28;20050;-49
2023/05/28 11:05:07;;;;;;;8.07;4.30;;;;;;;;;;4987114;28;20041;-49
2023/05/28 11:07:41;;;;;;;5.63;4.32;;;;;;;;;;4985178;28;20388;-46
2023/05/28 11:10:12;;;;;;;6.75;3.97;;;;;;;;;;4982212;28;20045;-50
2023/05/28 11:12:39;;;;;;;6.30;4.38;;;;;;;;;;4985052;28;20038;-46
2023/05/28 11:15:06;;;;;;;8.90;4.45;;;;;;;;;;4983752;28;20022;-44
2023/05/28 11:17:38;;;;;;;9.27;4.78;;;;;;;;;;4981564;28;20455;-47
2023/05/28 11:20:05;;;;;;;5.43;3.80;;;;;;;;;;4982203;28;20061;-51
2023/05/28 11:22:35;;;;;;;9.20;3.90;;;;;;;;;;4983893;28;20035;-44
2023/05/28 11:25:06;;;;;;;7.68;3.80;;;;;;;;;;4985000;28;20030;-50
2023/05/28 11:27:35;;;;;;;5.13;3.23;;;;;;;;;;4984389;28;20133;-49
2023/05/28 11:30:02;;;;;;;6.68;3.20;;;;;;;;;;4978580;28;20030;-46
2023/05/28 11:32:28;;;;;;;6.82;3.55;;;;;;;;;;4981515;28;20047;-43
2023/05/28 11:34:55;;;;;;;7.32;3.38;;;;;;;;;;4981357;28;20062;-49
2023/05/28 11:37:29;;;;;;;6.10;3.00;;;;;;;;;;4980878;28;20049;-45
2023/05/28 11:39:56;;;;;;;10.82;3.60;;;;;;;;;;4985355;28;20045;-49
2023/05/28 11:42:23;;;;;;;9.60;3.65;;;;;;;;;;4981685;28;20553;-47
2023/05/28 11:44:50;;;;;;;6.05;2.90;;;;;;;;;;4980749;28;20491;-48
2023/05/28 11:47:17;;;;;;;6.55;3.33;;;;;;;;;;4980890;28;20047;-50
2023/05/28 11:49:42;;;;;;;9.73;3.47;;;;;;;;;;4983056;28;20391;-47
2023/05/28 11:52:19;;;;;;;6.82;3.38;;;;;;;;;;4982761;28;20046;-50
2023/05/28 11:54:47;;;;;;;6.60;3.35;;;;;;;;;;4985030;28;20033;-50
2023/05/28 11:57:26;;;;;;;5.57;3.70;;;;;;;;;;4980799;28;20089;-45
2023/05/28 12:00:11;;;;;;;4.78;3.63;;;;;;;;;;4986324;28;20037;-49
2023/05/28 12:02:47;;;;;;;8.27;4.03;;;;;;;;;;4980619;28;20066;-48
2023/05/28 12:05:13;;;;;;;6.95;3.45;;;;;;;;;;4982704;28;20244;-49
2023/05/28 12:07:45;;;;;;;6.97;3.58;;;;;;;;;;4983634;28;20038;-43
2023/05/28 12:10:13;;;;;;;13.02;3.53;;;;;;;;;;4983641;28;20030;-46
2023/05/28 12:12:43;;;;;;;9.23;3.13;;;;;;;;;;4981457;28;20043;-44
2023/05/28 12:15:09;;;;;;;8.55;3.05;;;;;;;;;;4983384;28;20668;-47
2023/05/28 12:17:39;;;;;;;5.90;3.15;;;;;;;;;;4981208;28;20372;-51
2023/05/28 12:20:17;;;;;;;6.53;3.47;;;;;;;;;;4984699;28;20030;-47
2023/05/28 12:22:42;;;;;;;4.70;3.42;;;;;;;;;;4980303;28;20073;-45
2023/05/28 12:25:08;;;;;;;4.88;3.20;;;;;;;;;;4985924;28;20066;-43
2023/05/28 12:27:35;;;;;;;8.07;3.45;;;;;;;;;;4984554;28;20170;-49
2023/05/28 12:30:00;;;;;;;8.50;3.15;;;;;;;;;;4984048;28;20034;-52
2023/05/28 12:32:26;;;;;;;4.80;3.42;;;;;;;;;;4981383;28;20038;-48
2023/05/28 12:34:53;;;;;;;7.72;3.45;;;;;;;;;;4981484;28;20133;-45
2023/05/28 12:37:20;;;;;;;5.40;3.25;;;;;;;;;;4982693;28;20038;-46
2023/05/28 12:39:46;;;;;;;5.80;3.30;;;;;;;;;;4981022;28;20093;-47
2023/05/28 12:42:11;;;;;;;5.47;3.00;;;;;;;;;;4983104;28;20038;-44
2023/05/28 12:44:36;;;;;;;7.88;3.42;;;;;;;;;;4985092;28;20186;-47
2023/05/28 12:47:02;;;;;;;5.00;3.53;;;;;;;;;;4982174;28;20054;-45
2023/05/28 12:49:27;;;;;;;6.07;2.92;;;;;;;;;;5014033;28;20033;-45
2023/05/28 12:51:53;;;;;;;4.90;3.03;;;;;;;;;;4981764;28;20038;-45
2023/05/28 12:54:18;;;;;;;3.70;2.60;;;;;;;;;;4981177;28;20022;-45
2023/05/28 12:56:44;;;;;;;8.27;2.83;;;;;;;;;;4984129;28;20188;-48
2023/05/28 12:59:23;;;;;;;3.65;2.72;;;;;;;;;;4981098;28;20069;-48
2023/05/28 13:01:49;;;;;;;4.93;3.10;;;;;;;;;;4980231;28;21480;-44
2023/05/28 13:04:15;;;;;;;5.60;2.95;;;;;;;;;;4983810;28;20155;-44
2023/05/28 13:06:42;;;;;;;6.15;2.38;;;;;;;;;;4983006;28;20034;-49
2023/05/28 13:09:09;;;;;;;7.47;3.13;;;;;;;;;;4984099;28;20562;-46
2023/05/28 13:11:35;;;;;;;8.20;3.10;;;;;;;;;;4977280;28;20075;-45
2023/05/28 13:14:00;;;;;;;4.20;2.63;;;;;;;;;;4984347;28;20048;-49
2023/05/28 13:16:25;;;;;;;4.53;2.78;;;;;;;;;;4982309;28;20035;-47
2023/05/28 13:18:51;;;;;;;5.10;2.58;;;;;;;;;;4982978;28;20065;-46
2023/05/28 13:21:16;;;;;;;5.00;2.85;;;;;;;;;;4982159;28;20034;-47
2023/05/28 13:23:42;;;;;;;5.95;2.78;;;;;;;;;;4981795;28;20384;-49
2023/05/28 13:26:07;;;;;;;4.57;2.63;;;;;;;;;;4983260;28;20547;-44
2023/05/28 13:28:32;;;;;;;5.63;3.47;;;;;;;;;;4981124;28;20042;-48
2023/05/28 13:30:58;;;;;;;5.03;2.90;;;;;;;;;;4980545;28;20440;-46
2023/05/28 13:33:23;;;;;;;7.70;3.13;;;;;;;;;;4981816;28;20026;-47
2023/05/28 13:35:48;;;;;;;6.47;2.95;;;;;;;;;;4981853;28;20070;-51
2023/05/28 13:38:14;;;;;;;5.88;2.95;;;;;;;;;;4982505;28;21118;-48
2023/05/28 13:40:39;;;;;;;4.85;2.78;;;;;;;;;;4982426;28;20031;-51
2023/05/28 13:43:06;;;;;;;8.13;2.90;;;;;;;;;;4981546;28;20375;-51
2023/05/28 13:45:32;;;;;;;10.50;3.10;;;;;;;;;;4983355;28;20070;-47
2023/05/28 13:47:57;;;;;;;7.35;3.17;;;;;;;;;;4983645;28;20076;-46
2023/05/28 13:50:23;;;;;;;7.75;3.78;;;;;;;;;;4978478;28;20034;-45
2023/05/28 13:52:48;;;;;;;5.88;2.83;;;;;;;;;;4981484;28;20026;-47
2023/05/28 13:55:14;;;;;;;9.43;3.20;;;;;;;;;;4986379;28;20031;-52
2023/05/28 13:57:39;;;;;;;4.93;3.58;;;;;;;;;;4982690;28;20039;-52
2023/05/28 14:00:08;;;;;;;5.80;2.90;;;;;;;;;;4987320;28;20153;-49
2023/05/28 14:02:33;;;;;;;7.70;3.78;;;;;;;;;;4987934;28;20042;-51
2023/05/28 14:04:58;;;;;;;6.80;2.72;;;;;;;;;;4986456;28;20028;-47
2023/05/28 14:07:24;;;;;;;3.20;2.67;;;;;;;;;;4984100;28;20046;-47
2023/05/28 14:09:49;;;;;;;4.85;2.88;;;;;;;;;;4987432;28;20081;-46
2023/05/28 14:12:15;;;;;;;6.68;2.97;;;;;;;;;;4984925;28;20122;-47
2023/05/28 14:14:40;;;;;;;5.13;3.72;;;;;;;;;;4987805;28;20038;-46
2023/05/28 14:17:06;;;;;;;5.43;2.88;;;;;;;;;;4987338;28;20663;-48
2023/05/28 14:19:31;;;;;;;3.42;2.63;;;;;;;;;;4982697;28;20030;-52
2023/05/28 14:21:56;;;;;;;8.45;3.35;;;;;;;;;;4985497;28;20044;-44
2023/05/28 14:24:22;;;;;;;6.25;3.58;;;;;;;;;;4985010;28;20022;-47
2023/05/28 14:26:47;;;;;;;7.20;3.25;;;;;;;;;;4986924;28;20077;-53